Chem Sun — V7GW6 — position and weather

sailwx.info

Track history (hours):
 
Tides and Currents Weather Stations Pressure Air Temp Water Temp Dewpoint Dewpoint Depression Visibility Wind Speed Wind Dir Waves Ship Positions

Chem Sun

Last reported at 2017-Sep-21 11:18 UTC. Time now 2017-Oct-19 01:30 UTC.
Position N 29°28' W 094°51'.
Warning: this ship's position is 27 days out of date.

Length 96 m; draft 5.2 m.

Type: Tanker. MMSI: 538002185.

Date/timePositionNaut miles runAvg speedWind from/ knotsBaromVisibWave heightAir tempDewpointWater temp
2017-Sep-21 11:18N 29°28' W 094°51'310.9
2017-Sep-21 11:00N 29°31' W 094°53'510.9
2017-Sep-21 10:30N 29°35' W 094°56'4 7.6
2017-Sep-21 10:00N 29°37' W 095°00'1 1.7
2017-Sep-21 09:30N 29°37' W 095°01'0 0.0
2017-Sep-20 21:49N 29°37' W 095°01'0 0.0
2017-Sep-20 21:30N 29°37' W 095°01'1 2.3
2017-Sep-20 21:00N 29°37' W 094°60'3 5.3
2017-Sep-20 20:30N 29°39' W 094°58'5 9.5
2017-Sep-20 20:00N 29°43' W 095°01'3 6.9
2017-Sep-20 19:30N 29°45' W 095°04'3 5.1
2017-Sep-20 19:00N 29°44' W 095°07'3 5.2
2017-Sep-20 18:30N 29°45' W 095°10'1 2.6
2017-Sep-20 18:00N 29°45' W 095°11'0 0.0
2017-Sep-19 00:50N 29°45' W 095°11'0 0.4
2017-Sep-19 00:30N 29°45' W 095°11'3 5.0
2017-Sep-18 23:59N 29°43' W 095°14'2 4.5
2017-Sep-18 23:30N 29°44' W 095°16'  
2017-Sep-13 22:37N 29°44' W 095°14'1 5.6
2017-Sep-13 22:27N 29°44' W 095°13'3 5.5
2017-Sep-13 21:59N 29°45' W 095°10'3 5.6
2017-Sep-13 21:30N 29°44' W 095°07'3 4.8
2017-Sep-13 20:56N 29°44' W 095°04'3 7.0
2017-Sep-13 20:30N 29°42' W 095°01'5 9.6
2017-Sep-13 20:00N 29°38' W 094°58'611.4
2017-Sep-13 19:30N 29°33' W 094°55'611.3
2017-Sep-13 19:00N 29°28' W 094°51'  
Track history (hours):
 
Tides and Currents Weather Stations Pressure Air Temp Water Temp Dewpoint Dewpoint Depression Visibility Wind Speed Wind Dir Waves Ship Positions

Chem Sun

Last reported at 2017-Sep-21 11:18 UTC. Time now 2017-Oct-19 01:30 UTC.
Position N 29°28' W 094°51'.
Warning: this ship's position is 27 days out of date.

Length 96 m; draft 5.2 m.

Type: Tanker. MMSI: 538002185.

Date/timePositionNaut miles runAvg speedWind from/ knotsBaromVisibWave heightAir tempDewpointWater temp
2017-Sep-21 11:18N 29°28' W 094°51'310.9
2017-Sep-21 11:00N 29°31' W 094°53'510.9
2017-Sep-21 10:30N 29°35' W 094°56'4 7.6
2017-Sep-21 10:00N 29°37' W 095°00'1 1.7
2017-Sep-21 09:30N 29°37' W 095°01'0 0.0
2017-Sep-20 21:49N 29°37' W 095°01'0 0.0
2017-Sep-20 21:30N 29°37' W 095°01'1 2.3
2017-Sep-20 21:00N 29°37' W 094°60'3 5.3
2017-Sep-20 20:30N 29°39' W 094°58'5 9.5
2017-Sep-20 20:00N 29°43' W 095°01'3 6.9
2017-Sep-20 19:30N 29°45' W 095°04'3 5.1
2017-Sep-20 19:00N 29°44' W 095°07'3 5.2
2017-Sep-20 18:30N 29°45' W 095°10'1 2.6
2017-Sep-20 18:00N 29°45' W 095°11'0 0.0
2017-Sep-19 00:50N 29°45' W 095°11'0 0.4
2017-Sep-19 00:30N 29°45' W 095°11'3 5.0
2017-Sep-18 23:59N 29°43' W 095°14'2 4.5
2017-Sep-18 23:30N 29°44' W 095°16'  
2017-Sep-13 22:37N 29°44' W 095°14'1 5.6
2017-Sep-13 22:27N 29°44' W 095°13'3 5.5
2017-Sep-13 21:59N 29°45' W 095°10'3 5.6
2017-Sep-13 21:30N 29°44' W 095°07'3 4.8
2017-Sep-13 20:56N 29°44' W 095°04'3 7.0
2017-Sep-13 20:30N 29°42' W 095°01'5 9.6
2017-Sep-13 20:00N 29°38' W 094°58'611.4
2017-Sep-13 19:30N 29°33' W 094°55'611.3
2017-Sep-13 19:00N 29°28' W 094°51'  

Dump ship's entire track history